Nearby METAR Reports

 

KCMA - Camarillo, California, USA
Distance from station: WSW 4mi, 7km
Updated: Mon, 03-Aug-2020 7:55pm PDT
Clear
Clear
 Wind from SSW
Wind: SSW 5 mph , 7 km/h
Temperature: 66°F , 19°C
Dew Point: 61°F , 16°C
Humidity: 83%
Barometer: 29.90 inHg , 1012.5 hPa
Clouds: Clear
Visibility: 10 miles , 16 km
2020/08/04 02:55 KCMA 040255Z 20004KT 10SM CLR 19/16 A2990 RMK AO2 SLP132 T01940156 56003 $
KNTD - Point Mugu Nas, California, USA
Distance from station: SSW 9mi, 15km
Updated: Mon, 03-Aug-2020 7:52pm PDT
Few Clouds
Few Clouds
 Wind from calm
Wind: Calm
Temperature: 64°F , 18°C
Dew Point: 61°F , 16°C
Humidity: 88%
Barometer: 29.91 inHg , 1012.9 hPa
Clouds: Few Clouds
Visibility: 9 miles , 14 km
Cloud details: Few Clouds 700 ft
2020/08/04 02:52 KNTD 040252Z 00000KT 9SM FEW007 18/16 A2991 RMK AO2 SLP128 T01780156 56006 $
 
KOXR - Oxnard, California, USA
Distance from station: WSW 10mi, 16km
Updated: Mon, 03-Aug-2020 7:51pm PDT
Few Clouds
Few Clouds
 Wind from WSW
Wind: WSW 3 mph , 6 km/h
Temperature: 64°F , 18°C
Dew Point: 61°F , 16°C
Humidity: 88%
Barometer: 29.90 inHg , 1012.5 hPa
Clouds: Few Clouds
Visibility: 10 miles , 16 km
Cloud details: Few Clouds 800 ft
2020/08/04 02:51 KOXR 040251Z 25003KT 10SM FEW008 18/16 A2990 RMK AO2 SLP125 T01780161 56003
KVNY - Van Nuys, California, USA
Distance from station: E 31mi, 50km
Updated: Mon, 03-Aug-2020 7:51pm PDT
Clear
Clear
 Wind from ESE
Wind: ESE 6 mph , 9 km/h
Temperature: 82°F , 28°C
Dew Point: 50°F , 10°C
Humidity: 32%
Barometer: 29.89 inHg , 1012.2 hPa
Clouds: Clear
Visibility: 10 miles , 16 km
2020/08/04 02:51 KVNY 040251Z 11005KT 10SM CLR 28/10 A2989 RMK AO2 SLP113 T02830100 55000
 
KWHP - La / Whiteman, California, USA
Distance from station: E 35mi, 56km
Updated: Mon, 03-Aug-2020 8:00pm PDT
Clear
Clear
 Wind from SE
Wind: SE 6 mph , 9 km/h
Temperature: 81°F , 27°C
Heat Index: 81°F , 27°C
Dew Point: 59°F , 15°C
Humidity: 48%
Barometer: 29.94 inHg , 1013.9 hPa
Clouds: Clear
Visibility: 10 miles , 16 km
2020/08/04 03:00 KWHP 040300Z 13005KT 10SM SKC 27/15 A2994
KSMO - Santa Monica, California, USA
Distance from station: ESE 36mi, 58km
Updated: Mon, 03-Aug-2020 7:51pm PDT
Clear
Clear
 Wind from WSW
Wind: WSW 6 mph , 9 km/h
Temperature: 66°F , 19°C
Dew Point: 63°F , 17°C
Humidity: 88%
Barometer: 29.91 inHg , 1012.9 hPa
Clouds: Clear
Visibility: 10 miles , 16 km
2020/08/04 02:51 KSMO 040251Z AUTO 24005KT 10SM CLR 19/17 A2991 RMK AO2 SLP127 T01890167 55003
 
KBUR - Burbank, California, USA
Distance from station: E 38mi, 61km
Updated: Mon, 03-Aug-2020 7:53pm PDT
Clear
Clear
 Wind from S
Wind: S 7 mph , 11 km/h
Temperature: 79°F , 26°C
Dew Point: 59°F , 15°C
Humidity: 51%
Barometer: 29.90 inHg , 1012.5 hPa
Clouds: Clear
Visibility: 10 miles , 16 km
2020/08/04 02:53 KBUR 040253Z 17006KT 10SM CLR 26/15 A2990 RMK AO2 SLP112 T02560150 53000 $
KSDB - Sandberg, California, USA
Distance from station: NNE 40mi, 64km
Updated: Mon, 27-Jul-2020 3:53pm PDT
NOT Current
Clear
Clear
 Wind from SE
Wind: SE 16 mph , 26 km/h
Temperature: 88°F , 31°C
Dew Point: 34°F , 1°C
Humidity: 15%
Barometer: 30.08 inHg , 1018.6 hPa
Clouds: Clear
Visibility: 10 miles , 16 km
2020/07/27 22:53 KSDB 272253Z AUTO 14014KT 10SM CLR 31/01 A3008 RMK AO2 SLP123 T03060011
 
KLAX - Los Angeles, California, USA
Distance from station: ESE 42mi, 68km
Updated: Mon, 03-Aug-2020 7:53pm PDT
Few Clouds
Few Clouds
 Wind from WSW
Wind: WSW 8 mph , 13 km/h
Temperature: 66°F , 19°C
Dew Point: 61°F , 16°C
Humidity: 83%
Barometer: 29.91 inHg , 1012.9 hPa
Clouds: Few Clouds
Visibility: 10 miles , 16 km
Cloud details: Few Clouds 1000 ft
2020/08/04 02:53 KLAX 040253Z 25007KT 10SM FEW010 19/16 A2991 RMK AO2 SLP126 T01940161 55004 $
KCQT - Los Angeles, California, USA
Distance from station: ESE 45mi, 73km
Updated: Mon, 03-Aug-2020 7:52pm PDT
Clear
Clear
 Wind from calm
Wind: Calm
Temperature: 72°F , 22°C
Dew Point: 61°F , 16°C
Humidity: 69%
Barometer: 29.90 inHg , 1012.5 hPa
Clouds: Clear
Visibility: 8 miles , 13 km
2020/08/04 02:52 KCQT 040252Z AUTO 00000KT 8SM CLR 22/16 A2990 RMK AO2 SLP122 T02220161 55001
 
KHHR - Hawthorne, California, USA
Distance from station: ESE 45mi, 73km
Updated: Mon, 03-Aug-2020 7:53pm PDT
Clear
Clear
 Wind from WSW
Wind: WSW 7 mph , 11 km/h
Temperature: 70°F , 21°C
Dew Point: 61°F , 16°C
Humidity: 73%
Barometer: 29.91 inHg , 1012.9 hPa
Clouds: Clear
Visibility: 10 miles , 16 km
2020/08/04 02:53 KHHR 040253Z 24006KT 10SM CLR 21/16 A2991 RMK AO2 SLP126 T02060161 55003
KSBA - Santa Barbara, California, USA
Distance from station: WNW 49mi, 79km
Updated: Mon, 03-Aug-2020 7:53pm PDT
Clear
Clear
 Wind from ESE
Wind: ESE 6 mph , 9 km/h
Temperature: 64°F , 18°C
Dew Point: 59°F , 15°C
Humidity: 83%
Barometer: 29.88 inHg , 1011.9 hPa
Clouds: Clear
Visibility: 10 miles , 16 km
2020/08/04 02:53 KSBA 040253Z 12005KT 10SM CLR 18/15 A2988 RMK AO2 SLP119 T01830150 58006 $